Terminal Aerodrome Forecast
Issued by NWS

Home | Current Version | Previous Version | Text Only | Print | Product List | Glossary On
Versions: 1 2 3 4 5 6 7 8 9 10 11 12
000
FTUS43 KSGF 290520
TAFBBG
TAF
KBBG 290520Z 2906/3006 VRB04KT P6SM BKN150 OVC200
     FM291000 VRB04KT P6SM VCSH SCT070 BKN200
      TEMPO 2911/2915 5SM -TSRA BR BKN050CB
     FM291600 16006KT P6SM SCT050 PROB30 2921/3001 4SM TSRA BKN040CB
     FM300100 14004KT P6SM SCT060 PROB30 3003/3006 4SM TSRA BR
      BKN050CB=

USA.gov is the U.S. government's official web portal to all federal, state and local government web resources and services.